Terminal Aerodrome Forecast
Issued by NWS

Home | Current Version | Previous Version | Text Only | Print | Product List | Glossary On
Versions: 1 2 3 4 5 6 7 8 9 10 11 12 13
807
FTUS46 KSEW 142339
TAFPAE
TAF
KPAE 142339Z 1500/1524 18011G20KT P6SM VCSH OVC006
     FM150300 19018G30KT 6SM -RA BR OVC005
     FM151300 19011KT 4SM -RA BR OVC007
     FM152100 18017G28KT P6SM VCSH SCT008 OVC015=

USA.gov is the U.S. government's official web portal to all federal, state and local government web resources and services.